Time;durP1;ratioP1;P1;durP2;ratioP2;P2;SDS_P1;SDS_P2;PMS_P1;PMS_P2;Temp;Humidity;BMP_temperature;BMP_pressure;BME280_temperature;BME280_humidity;BME280_pressure;Samples;Min_cycle;Max_cycle;Signal;HPM_P1;HPM_P2
2023/03/04 00:00:58;;;;;;;13.00;3.67;;;5.50;1.00;;;;;;5018214;28;20192;-52
2023/03/04 00:03:23;;;;;;;15.33;3.50;;;5.50;1.00;;;;;;5018888;28;20188;-52
2023/03/04 00:05:49;;;;;;;13.10;3.90;;;5.60;1.00;;;;;;5021527;28;20199;-52
2023/03/04 00:08:14;;;;;;;10.10;3.60;;;5.60;1.00;;;;;;5019334;28;20189;-52
2023/03/04 00:10:40;;;;;;;9.30;2.87;;;5.60;1.00;;;;;;5018721;28;20727;-52
2023/03/04 00:13:05;;;;;;;19.57;3.73;;;5.60;1.00;;;;;;5018296;28;20723;-52
2023/03/04 00:15:31;;;;;;;11.27;2.47;;;5.60;1.00;;;;;;5017963;28;20575;-52
2023/03/04 00:17:57;;;;;;;9.40;2.40;;;5.60;1.00;;;;;;5017810;28;20239;-52
2023/03/04 00:20:22;;;;;;;13.03;2.70;;;5.60;1.00;;;;;;5018478;28;20181;-52
2023/03/04 00:22:48;;;;;;;15.23;3.27;;;5.60;1.00;;;;;;5022300;28;20216;-52
2023/03/04 00:25:14;;;;;;;10.40;2.73;;;5.60;99.90;;;;;;5018124;28;20193;-52
2023/03/04 00:27:39;;;;;;;7.43;2.03;;;5.60;99.90;;;;;;5018133;28;20177;-52
2023/03/04 00:30:06;;;;;;;15.17;1.97;;;5.60;99.90;;;;;;5017814;28;20449;-52
2023/03/04 00:32:32;;;;;;;11.13;2.50;;;5.70;99.90;;;;;;5018428;28;20190;-52
2023/03/04 00:34:57;;;;;;;21.90;3.40;;;5.70;99.90;;;;;;5018286;28;20438;-52
2023/03/04 00:37:23;;;;;;;7.77;2.50;;;5.70;99.90;;;;;;5018037;28;20245;-52
2023/03/04 00:39:49;;;;;;;13.37;2.70;;;5.70;99.90;;;;;;5017977;28;20271;-52
2023/03/04 00:42:14;;;;;;;8.10;2.20;;;5.70;99.90;;;;;;5018207;28;20758;-52
2023/03/04 00:44:40;;;;;;;12.97;2.50;;;5.70;99.90;;;;;;5017448;28;20228;-52
2023/03/04 00:47:05;;;;;;;9.80;2.20;;;5.70;99.90;;;;;;5017611;28;20207;-52
2023/03/04 00:49:31;;;;;;;11.33;2.73;;;5.70;99.90;;;;;;5017988;28;20216;-52
2023/03/04 00:51:56;;;;;;;12.00;2.47;;;5.70;99.90;;;;;;5017073;28;20192;-52
2023/03/04 00:54:22;;;;;;;8.93;1.70;;;5.70;99.90;;;;;;5017586;28;20179;-52
2023/03/04 00:56:48;;;;;;;13.27;2.00;;;5.70;99.90;;;;;;5018004;28;20280;-52
2023/03/04 00:59:13;;;;;;;16.30;2.23;;;5.70;99.90;;;;;;5018685;28;22448;-52
2023/03/04 01:01:39;;;;;;;8.30;2.03;;;5.70;99.90;;;;;;5017157;28;20211;-52
2023/03/04 01:04:05;;;;;;;20.53;2.10;;;5.70;99.90;;;;;;5017729;28;20268;-52
2023/03/04 01:06:30;;;;;;;10.93;1.63;;;5.70;99.90;;;;;;5020557;28;20530;-52
2023/03/04 01:08:56;;;;;;;12.83;2.43;;;5.70;99.90;;;;;;5017761;28;20243;-52
2023/03/04 01:11:21;;;;;;;9.33;2.00;;;5.70;99.90;;;;;;5017617;28;20590;-51
2023/03/04 01:13:47;;;;;;;9.93;1.80;;;5.70;99.90;;;;;;5017389;28;20259;-52
2023/03/04 01:16:13;;;;;;;12.10;2.20;;;5.70;99.90;;;;;;5022896;28;20278;-52
2023/03/04 01:18:39;;;;;;;9.13;2.17;;;5.70;99.90;;;;;;5017155;28;20188;-52
2023/03/04 01:21:05;;;;;;;5.90;1.87;;;5.80;99.90;;;;;;5017501;28;20580;-52
2023/03/04 01:23:30;;;;;;;17.07;1.93;;;5.70;99.90;;;;;;5017386;28;20197;-52
2023/03/04 01:25:56;;;;;;;11.33;1.93;;;5.70;99.90;;;;;;5016738;28;20489;-52
2023/03/04 01:28:22;;;;;;;10.07;2.00;;;5.70;99.90;;;;;;5016976;28;20523;-51
2023/03/04 01:30:47;;;;;;;15.63;2.20;;;5.70;99.90;;;;;;5016681;28;20576;-52
2023/03/04 01:33:13;;;;;;;14.00;1.93;;;5.70;99.90;;;;;;5018001;28;20189;-52
2023/03/04 01:35:38;;;;;;;8.93;2.27;;;5.70;99.90;;;;;;5017239;28;20215;-52
2023/03/04 01:38:04;;;;;;;13.70;2.10;;;5.70;99.90;;;;;;5016670;28;20188;-52
2023/03/04 01:40:30;;;;;;;6.73;1.80;;;5.80;99.90;;;;;;5020163;28;20189;-52
2023/03/04 01:42:56;;;;;;;8.90;1.60;;;5.70;99.90;;;;;;5017773;28;21087;-52
2023/03/04 01:45:21;;;;;;;9.50;2.13;;;5.80;99.90;;;;;;5019956;28;20466;-52
2023/03/04 01:47:48;;;;;;;7.00;1.70;;;5.70;99.90;;;;;;5015900;28;20215;-52
2023/03/04 01:50:21;;;;;;;9.80;2.50;;;5.80;99.90;;;;;;5016567;28;20223;-52
2023/03/04 01:52:47;;;;;;;16.50;2.37;;;5.80;99.90;;;;;;5020084;28;20430;-52
2023/03/04 01:55:20;;;;;;;11.87;1.73;;;5.70;99.90;;;;;;5017081;28;20437;-51
2023/03/04 01:57:48;;;;;;;9.43;1.90;;;5.70;99.90;;;;;;5016449;28;20436;-52
2023/03/04 02:00:20;;;;;;;6.43;2.07;;;5.70;99.90;;;;;;5016738;28;20784;-52
2023/03/04 02:02:48;;;;;;;10.70;1.80;;;5.70;99.90;;;;;;5017448;28;20817;-52
2023/03/04 02:05:14;;;;;;;8.50;1.73;;;5.80;99.90;;;;;;5016953;28;20436;-52
2023/03/04 02:07:41;;;;;;;15.73;2.10;;;5.70;99.90;;;;;;5016859;28;20443;-51
2023/03/04 02:10:08;;;;;;;14.53;1.90;;;5.70;1.00;;;;;;5019301;28;20489;-52
2023/03/04 02:12:33;;;;;;;10.43;2.13;;;5.70;1.00;;;;;;5016272;28;20445;-51
2023/03/04 02:14:59;;;;;;;13.10;2.03;;;5.70;1.00;;;;;;5016054;28;20527;-51
2023/03/04 02:17:26;;;;;;;5.90;1.63;;;5.70;1.00;;;;;;5016049;28;20326;-52
2023/03/04 02:20:14;;;;;;;7.90;1.90;;;5.80;1.00;;;;;;5019137;28;20473;-52
2023/03/04 02:22:56;;;;;;;10.23;1.63;;;5.70;1.00;;;;;;5020548;28;20482;-52
2023/03/04 02:25:29;;;;;;;15.40;2.73;;;5.70;1.00;;;;;;5021265;28;20437;-52
2023/03/04 02:27:55;;;;;;;9.97;1.90;;;5.70;1.00;;;;;;5019177;28;20988;-51
2023/03/04 02:30:24;;;;;;;12.90;1.80;;;5.70;1.00;;;;;;5019496;28;20589;-52
2023/03/04 02:32:50;;;;;;;7.10;1.60;;;5.70;1.00;;;;;;5018456;28;20191;-52
2023/03/04 02:35:16;;;;;;;11.27;2.17;;;5.70;1.00;;;;;;5015698;28;20502;-52
2023/03/04 02:37:42;;;;;;;9.57;1.57;;;5.70;1.00;;;;;;5019543;28;21130;-52
2023/03/04 02:40:30;;;;;;;24.27;2.77;;;5.70;1.00;;;;;;5017805;28;20439;-52
2023/03/04 02:42:59;;;;;;;15.43;2.33;;;5.70;1.00;;;;;;5023119;28;20243;-52
2023/03/04 02:45:44;;;;;;;12.30;2.13;;;5.70;1.00;;;;;;5020058;28;20441;-52
2023/03/04 02:48:11;;;;;;;12.47;2.77;;;5.80;1.00;;;;;;5026078;28;20946;-51
2023/03/04 02:50:41;;;;;;;9.73;1.93;;;5.80;1.00;;;;;;5022064;28;20434;-52
2023/03/04 02:53:07;;;;;;;11.53;1.77;;;5.80;1.00;;;;;;5023044;28;20766;-52
2023/03/04 02:55:33;;;;;;;12.47;1.87;;;5.80;1.00;;;;;;5020826;28;20450;-52
2023/03/04 02:57:58;;;;;;;10.13;1.87;;;5.80;1.00;;;;;;5020505;28;20184;-52
2023/03/04 03:00:25;;;;;;;10.93;2.13;;;5.80;1.00;;;;;;5021314;28;20296;-52
2023/03/04 03:02:50;;;;;;;6.43;1.90;;;5.80;99.90;;;;;;5022828;28;20223;-51
2023/03/04 03:05:16;;;;;;;16.70;2.63;;;5.70;99.90;;;;;;5021429;28;20444;-52
2023/03/04 03:07:42;;;;;;;9.30;2.50;;;5.70;99.90;;;;;;5020395;28;20556;-52
2023/03/04 03:10:08;;;;;;;13.03;2.00;;;5.70;99.90;;;;;;5019509;28;20931;-52
2023/03/04 03:12:34;;;;;;;14.93;2.40;;;5.70;1.00;;;;;;5019558;28;20189;-52
2023/03/04 03:14:59;;;;;;;15.23;2.57;;;5.70;1.00;;;;;;5022619;28;20438;-52
2023/03/04 03:17:25;;;;;;;13.40;2.20;;;5.70;1.00;;;;;;5018933;28;20180;-52
2023/03/04 03:19:50;;;;;;;6.80;1.60;;;5.70;99.90;;;;;;5019167;28;20225;-52
2023/03/04 03:22:16;;;;;;;12.53;2.17;;;5.70;99.90;;;;;;5021065;28;20232;-52
2023/03/04 03:24:42;;;;;;;12.60;1.97;;;5.70;1.00;;;;;;5022428;28;20188;-52
2023/03/04 03:27:07;;;;;;;6.83;1.93;;;5.70;1.00;;;;;;5024678;28;20180;-52
2023/03/04 03:29:33;;;;;;;19.33;3.00;;;5.70;1.00;;;;;;5023801;28;20657;-52
2023/03/04 03:31:58;;;;;;;9.20;2.60;;;5.70;1.00;;;;;;5020039;28;20629;-52
2023/03/04 03:34:24;;;;;;;11.20;2.00;;;5.70;1.00;;;;;;5018585;28;20184;-52
2023/03/04 03:36:50;;;;;;;15.20;2.63;;;5.70;38.80;;;;;;5019226;28;20189;-52
2023/03/04 03:39:15;;;;;;;12.97;2.40;;;5.70;99.90;;;;;;5018557;28;20213;-52
2023/03/04 03:41:41;;;;;;;13.83;2.10;;;5.70;99.90;;;;;;5026487;28;20270;-52
2023/03/04 03:44:07;;;;;;;13.43;2.53;;;5.70;99.90;;;;;;5025619;28;20782;-52
2023/03/04 03:46:34;;;;;;;10.10;2.20;;;5.70;99.90;;;;;;5024124;28;20191;-52
2023/03/04 03:49:00;;;;;;;17.47;2.40;;;5.70;1.00;;;;;;5024628;28;20844;-52
2023/03/04 03:51:25;;;;;;;18.33;2.87;;;5.60;73.30;;;;;;5024342;28;20459;-52
2023/03/04 03:53:51;;;;;;;13.97;2.30;;;5.70;99.90;;;;;;5021462;28;20816;-52
2023/03/04 03:56:16;;;;;;;16.90;2.60;;;5.70;1.00;;;;;;5025204;28;20253;-52
2023/03/04 03:58:42;;;;;;;11.73;2.57;;;5.70;4.50;;;;;;5024472;28;20208;-52
2023/03/04 04:01:08;;;;;;;19.20;2.03;;;5.60;84.20;;;;;;5023028;28;20185;-52
2023/03/04 04:03:34;;;;;;;19.93;3.10;;;5.60;67.70;;;;;;5022113;28;20197;-52
2023/03/04 04:06:00;;;;;;;22.20;2.77;;;5.60;99.90;;;;;;5022524;28;20466;-52
2023/03/04 04:08:25;;;;;;;19.37;3.20;;;5.60;99.90;;;;;;5022184;28;20423;-52
2023/03/04 04:10:51;;;;;;;10.93;2.27;;;5.60;99.90;;;;;;5018378;28;20225;-52
2023/03/04 04:13:17;;;;;;;17.17;2.30;;;5.60;1.00;;;;;;5025141;28;20188;-52
2023/03/04 04:15:42;;;;;;;8.20;2.10;;;5.60;1.00;;;;;;5017939;28;20201;-52
2023/03/04 04:18:08;;;;;;;8.03;2.00;;;5.60;90.40;;;;;;5019004;28;20185;-52
2023/03/04 04:20:35;;;;;;;7.00;2.10;;;5.60;1.00;;;;;;5023596;28;20184;-53
2023/03/04 04:23:01;;;;;;;19.23;2.83;;;5.60;99.90;;;;;;5023170;28;20807;-52
2023/03/04 04:25:27;;;;;;;14.97;2.43;;;5.70;1.00;;;;;;5025142;28;20439;-52
2023/03/04 04:27:53;;;;;;;11.70;3.03;;;5.70;99.90;;;;;;5025497;28;21011;-52
2023/03/04 04:30:18;;;;;;;13.83;3.20;;;5.70;1.00;;;;;;5024142;28;20204;-52
2023/03/04 04:32:44;;;;;;;17.00;2.40;;;5.70;1.00;;;;;;5022640;28;20239;-51
2023/03/04 04:35:10;;;;;;;13.07;3.07;;;5.80;1.00;;;;;;5021339;28;20197;-52
2023/03/04 04:37:35;;;;;;;15.23;2.23;;;5.80;1.00;;;;;;5020552;28;20784;-51
2023/03/04 04:40:02;;;;;;;10.93;2.30;;;5.80;1.00;;;;;;5021211;28;20663;-52
2023/03/04 04:42:28;;;;;;;16.17;2.30;;;5.80;1.00;;;;;;5020284;28;20218;-51
2023/03/04 04:44:53;;;;;;;14.43;2.50;;;5.70;1.00;;;;;;5019155;28;20455;-52
2023/03/04 04:47:25;;;;;;;8.30;2.03;;;5.80;1.00;;;;;;5017622;28;20189;-52
2023/03/04 04:49:51;;;;;;;6.70;1.63;;;5.80;1.00;;;;;;5023103;28;20181;-52
2023/03/04 04:52:16;;;;;;;9.90;2.17;;;5.80;1.00;;;;;;5020121;28;20783;-51
2023/03/04 04:54:42;;;;;;;16.17;2.40;;;5.80;1.00;;;;;;5019738;28;20531;-52
2023/03/04 04:57:08;;;;;;;14.03;2.70;;;5.80;1.00;;;;;;5018623;28;20270;-52
2023/03/04 04:59:33;;;;;;;11.63;2.17;;;5.80;1.00;;;;;;5020249;28;20220;-51
2023/03/04 05:01:59;;;;;;;5.13;2.10;;;5.80;1.00;;;;;;5020802;28;20294;-52
2023/03/04 05:04:24;;;;;;;8.77;1.90;;;5.70;13.80;;;;;;5022716;28;20191;-52
2023/03/04 05:06:50;;;;;;;11.20;2.20;;;5.70;99.90;;;;;;5017642;28;20181;-52
2023/03/04 05:09:16;;;;;;;11.87;2.17;;;5.70;99.90;;;;;;5016844;28;20182;-52
2023/03/04 05:11:41;;;;;;;12.97;2.87;;;5.70;1.00;;;;;;5019870;28;20191;-52
2023/03/04 05:14:07;;;;;;;10.03;2.80;;;5.60;6.10;;;;;;5019660;28;20204;-52
2023/03/04 05:16:32;;;;;;;8.70;2.13;;;5.50;1.00;;;;;;5018301;28;20242;-52
2023/03/04 05:18:58;;;;;;;11.50;2.60;;;5.60;99.90;;;;;;5017009;28;20192;-52
2023/03/04 05:21:24;;;;;;;9.57;2.33;;;5.50;1.00;;;;;;5020679;28;20222;-52
2023/03/04 05:23:49;;;;;;;15.93;2.83;;;5.50;1.00;;;;;;5020274;28;20188;-52
2023/03/04 05:26:17;;;;;;;19.20;3.07;;;5.50;1.00;;;;;;5018819;28;20279;-53
2023/03/04 05:28:43;;;;;;;12.20;3.10;;;5.50;1.00;;;;;;5021777;28;20237;-52
2023/03/04 05:31:09;;;;;;;11.60;2.97;;;5.50;1.00;;;;;;5020958;28;20962;-51
2023/03/04 05:33:34;;;;;;;15.83;3.13;;;5.50;92.20;;;;;;5017609;28;20446;-52
2023/03/04 05:36:01;;;;;;;16.37;3.83;;;5.50;99.90;;;;;;5017132;28;20971;-52
2023/03/04 05:38:27;;;;;;;17.53;3.70;;;5.50;1.00;;;;;;5016809;28;20222;-52
2023/03/04 05:41:03;;;;;;;17.83;4.13;;;5.50;99.90;;;;;;5026811;28;20838;-52
2023/03/04 05:43:30;;;;;;;15.23;4.03;;;5.50;3.40;;;;;;5016393;28;20688;-52
2023/03/04 05:45:56;;;;;;;16.90;3.53;;;5.50;1.00;;;;;;5016773;28;20751;-51
2023/03/04 05:48:22;;;;;;;22.10;3.90;;;5.40;99.90;;;;;;5021356;28;20454;-51
2023/03/04 05:50:53;;;;;;;19.57;3.50;;;5.50;99.90;;;;;;5017155;28;20189;-52
2023/03/04 05:53:19;;;;;;;21.60;4.20;;;5.50;99.90;;;;;;5020139;28;20442;-52
2023/03/04 05:55:48;;;;;;;21.70;3.40;;;5.60;86.70;;;;;;5021794;28;20435;-51
2023/03/04 05:58:14;;;;;;;28.30;3.70;;;5.60;67.60;;;;;;5020504;28;20188;-51
2023/03/04 06:00:40;;;;;;;22.60;3.90;;;5.60;65.40;;;;;;5018404;28;20442;-51
2023/03/04 06:03:06;;;;;;;17.57;3.90;;;5.50;55.10;;;;;;5021188;28;20499;-51
2023/03/04 06:05:32;;;;;;;20.50;5.13;;;5.60;51.20;;;;;;5018486;28;20617;-52
2023/03/04 06:07:57;;;;;;;23.70;4.97;;;5.60;38.30;;;;;;5018534;28;20450;-52
2023/03/04 06:10:23;;;;;;;18.93;4.90;;;5.50;28.00;;;;;;5020766;28;20284;-52
2023/03/04 06:12:48;;;;;;;23.53;5.70;;;5.50;21.50;;;;;;5017802;28;20554;-51
2023/03/04 06:15:14;;;;;;;27.43;5.40;;;5.60;18.40;;;;;;5016261;28;20180;-51
2023/03/04 06:17:41;;;;;;;24.57;5.00;;;5.60;14.80;;;;;;5022881;28;20187;-52
2023/03/04 06:20:07;;;;;;;23.50;5.10;;;5.60;6.90;;;;;;5023506;28;20193;-52
2023/03/04 06:22:34;;;;;;;17.13;4.30;;;5.60;11.20;;;;;;5021633;28;20536;-51
2023/03/04 06:25:00;;;;;;;17.60;3.97;;;5.60;1.00;;;;;;5022944;28;20443;-51
2023/03/04 06:27:26;;;;;;;25.67;3.83;;;5.60;1.00;;;;;;5024583;28;20437;-51
2023/03/04 06:29:52;;;;;;;32.43;4.40;;;5.50;1.00;;;;;;5022783;28;20442;-51
2023/03/04 06:32:17;;;;;;;14.90;3.00;;;5.40;1.00;;;;;;5019689;28;20564;-51
2023/03/04 06:34:43;;;;;;;28.17;4.23;;;5.40;1.00;;;;;;5019237;28;20442;-51
2023/03/04 06:37:09;;;;;;;22.93;3.83;;;5.40;1.00;;;;;;5016779;28;20275;-51
2023/03/04 06:39:34;;;;;;;18.60;2.97;;;5.30;1.00;;;;;;5019943;28;20181;-51
2023/03/04 06:42:00;;;;;;;12.47;3.10;;;5.40;1.00;;;;;;5021255;28;20618;-51
2023/03/04 06:44:25;;;;;;;16.57;2.40;;;5.30;1.00;;;;;;5022585;28;20244;-51
2023/03/04 06:46:51;;;;;;;13.80;2.40;;;5.30;1.00;;;;;;5019272;28;20203;-51
2023/03/04 06:49:16;;;;;;;23.83;3.20;;;5.30;1.00;;;;;;5023360;28;20184;-51
2023/03/04 06:51:42;;;;;;;18.70;3.20;;;5.30;1.00;;;;;;5017928;28;20194;-52
2023/03/04 06:54:08;;;;;;;14.67;2.30;;;5.40;1.00;;;;;;5016895;28;20600;-51
2023/03/04 06:56:34;;;;;;;21.17;3.87;;;5.40;1.00;;;;;;5020913;28;20196;-51
2023/03/04 06:59:00;;;;;;;15.60;2.70;;;5.30;1.00;;;;;;5022556;28;20434;-52
2023/03/04 07:01:27;;;;;;;8.80;2.50;;;5.30;1.00;;;;;;5019483;28;20478;-51
2023/03/04 07:03:54;;;;;;;11.37;2.70;;;5.30;1.00;;;;;;5018614;28;20191;-51
2023/03/04 07:06:23;;;;;;;20.50;2.40;;;5.30;1.00;;;;;;5019459;28;20439;-51
2023/03/04 07:08:49;;;;;;;17.60;2.80;;;5.30;1.00;;;;;;5018936;28;20434;-51
2023/03/04 07:11:16;;;;;;;19.37;2.80;;;5.30;1.00;;;;;;5018290;28;20813;-51
2023/03/04 07:13:41;;;;;;;12.37;2.60;;;5.30;1.00;;;;;;5018990;28;20222;-51
2023/03/04 07:16:09;;;;;;;12.30;2.50;;;5.30;1.00;;;;;;5017090;28;20441;-51
2023/03/04 07:18:36;;;;;;;13.77;2.40;;;5.30;1.00;;;;;;5017224;28;20208;-51
2023/03/04 07:21:02;;;;;;;16.00;2.43;;;5.30;1.00;;;;;;5015571;28;20505;-51
2023/03/04 07:23:27;;;;;;;27.50;3.07;;;5.30;1.00;;;;;;5015951;28;20440;-51
2023/03/04 07:25:53;;;;;;;14.70;2.77;;;5.30;1.00;;;;;;5016916;28;20634;-51
2023/03/04 07:28:19;;;;;;;16.57;2.60;;;5.30;1.00;;;;;;5025829;28;20192;-51
2023/03/04 07:30:44;;;;;;;18.57;2.60;;;5.30;1.00;;;;;;5019103;28;20241;-51
2023/03/04 07:33:10;;;;;;;24.23;3.33;;;5.30;1.00;;;;;;5027067;28;20180;-52
2023/03/04 07:35:36;;;;;;;13.17;3.10;;;5.40;1.00;;;;;;5018814;28;20195;-51
2023/03/04 07:38:02;;;;;;;12.53;2.83;;;5.40;1.00;;;;;;5022317;28;20442;-51
2023/03/04 07:40:27;;;;;;;16.57;3.37;;;5.40;1.00;;;;;;5022475;28;20273;-51
2023/03/04 07:42:55;;;;;;;13.73;2.60;;;5.30;1.00;;;;;;5020025;28;20250;-50
2023/03/04 07:45:22;;;;;;;16.40;3.00;;;5.40;1.00;;;;;;5024289;28;20190;-51
2023/03/04 07:47:47;;;;;;;14.10;3.53;;;5.40;1.00;;;;;;5018739;28;20874;-51
2023/03/04 07:50:13;;;;;;;14.30;2.70;;;5.40;1.00;;;;;;5019722;28;20467;-51
2023/03/04 07:52:40;;;;;;;17.57;3.00;;;5.40;1.00;;;;;;5022394;28;20644;-51
2023/03/04 07:55:07;;;;;;;17.87;3.50;;;5.40;1.00;;;;;;5028144;28;20942;-51
2023/03/04 07:57:32;;;;;;;33.57;3.73;;;5.40;1.00;;;;;;5022521;28;20536;-51
2023/03/04 07:59:58;;;;;;;28.53;3.93;;;5.40;1.00;;;;;;5025651;28;20518;-51
2023/03/04 08:02:24;;;;;;;24.33;3.80;;;5.40;1.00;;;;;;5020336;28;20218;-51
2023/03/04 08:04:49;;;;;;;26.77;3.50;;;5.40;1.00;;;;;;5019731;28;20190;-51
2023/03/04 08:07:15;;;;;;;25.73;3.77;;;5.40;1.00;;;;;;5023441;28;20189;-51
2023/03/04 08:09:41;;;;;;;24.17;3.70;;;5.40;1.00;;;;;;5024438;28;20196;-51
2023/03/04 08:12:07;;;;;;;16.43;3.70;;;5.50;1.00;;;;;;5025477;28;20535;-51
2023/03/04 08:14:33;;;;;;;24.77;4.10;;;5.50;1.00;;;;;;5023942;28;20672;-51
2023/03/04 08:16:58;;;;;;;33.47;4.97;;;5.50;1.00;;;;;;5028460;28;20175;-51
2023/03/04 08:19:24;;;;;;;21.83;3.40;;;5.50;1.00;;;;;;5028047;28;20580;-51
2023/03/04 08:21:50;;;;;;;16.50;3.13;;;5.50;1.00;;;;;;5020279;28;20239;-51
2023/03/04 08:24:15;;;;;;;19.87;3.70;;;5.40;1.00;;;;;;5022442;28;20228;-51
2023/03/04 08:26:44;;;;;;;22.77;4.00;;;5.50;1.00;;;;;;5025588;28;20191;-51
2023/03/04 08:29:13;;;;;;;14.60;2.93;;;5.40;1.00;;;;;;5021453;28;20271;-52
2023/03/04 08:31:38;;;;;;;19.43;3.80;;;5.40;1.00;;;;;;5020066;28;20430;-51
2023/03/04 08:34:06;;;;;;;19.90;3.47;;;5.40;1.00;;;;;;5021703;28;20430;-51
2023/03/04 08:36:32;;;;;;;15.37;3.07;;;5.40;1.00;;;;;;5019473;28;20195;-51
2023/03/04 08:38:58;;;;;;;21.20;3.43;;;5.40;1.00;;;;;;5020970;28;20432;-50
2023/03/04 08:41:26;;;;;;;28.90;3.37;;;5.50;1.00;;;;;;5020042;28;20312;-51
2023/03/04 08:43:51;;;;;;;17.03;3.40;;;5.40;1.00;;;;;;5020778;28;20231;-51
2023/03/04 08:46:17;;;;;;;26.93;4.27;;;5.40;1.00;;;;;;5022716;28;20438;-51
2023/03/04 08:48:42;;;;;;;23.47;5.20;;;5.40;1.00;;;;;;5023574;28;20632;-51
2023/03/04 08:51:11;;;;;;;22.83;3.33;;;5.40;1.00;;;;;;5021932;28;20195;-51
2023/03/04 08:53:38;;;;;;;21.83;4.60;;;5.40;1.00;;;;;;5021694;28;20188;-51
2023/03/04 08:56:04;;;;;;;18.23;3.43;;;5.40;1.00;;;;;;5025742;28;20446;-51
2023/03/04 08:58:30;;;;;;;23.93;2.93;;;5.60;1.00;;;;;;5017020;28;20936;-51
2023/03/04 09:00:58;;;;;;;17.83;3.07;;;5.50;1.00;;;;;;5028545;28;20526;-51
2023/03/04 09:03:24;;;;;;;29.53;3.50;;;5.60;1.00;;;;;;5033470;28;20599;-51
2023/03/04 09:05:49;;;;;;;20.77;3.63;;;5.60;1.00;;;;;;5031184;28;20517;-51
2023/03/04 09:08:16;;;;;;;23.53;4.70;;;5.50;1.00;;;;;;5032174;28;20180;-51
2023/03/04 09:10:43;;;;;;;27.60;3.90;;;5.60;1.00;;;;;;5033245;28;20468;-51
2023/03/04 09:13:14;;;;;;;21.20;3.60;;;5.60;1.00;;;;;;5033436;28;20435;-51
2023/03/04 09:15:47;;;;;;;22.83;3.33;;;5.60;1.00;;;;;;5028018;28;20438;-51
2023/03/04 09:18:14;;;;;;;27.20;3.80;;;5.60;1.00;;;;;;5029442;28;20907;-51
2023/03/04 09:20:39;;;;;;;19.80;3.90;;;5.50;1.00;;;;;;5027303;28;20541;-51
2023/03/04 09:23:05;;;;;;;22.93;3.63;;;5.60;1.00;;;;;;5022177;28;21049;-51
2023/03/04 09:25:31;;;;;;;26.40;4.03;;;5.50;1.00;;;;;;5025777;28;20179;-52
2023/03/04 09:27:57;;;;;;;27.33;4.00;;;5.50;1.00;;;;;;5022909;28;20206;-52
2023/03/04 09:30:23;;;;;;;24.23;3.27;;;5.50;1.00;;;;;;5022676;28;20899;-51
2023/03/04 09:32:48;;;;;;;16.90;3.70;;;5.50;1.00;;;;;;5021138;28;20664;-51
2023/03/04 09:35:14;;;;;;;28.03;3.80;;;5.60;1.00;;;;;;5023325;28;20203;-52
2023/03/04 09:37:39;;;;;;;18.07;3.90;;;5.70;1.00;;;;;;5022257;28;20215;-52
2023/03/04 09:40:07;;;;;;;21.70;3.93;;;5.70;1.00;;;;;;5028344;28;20644;-51
2023/03/04 09:42:46;;;;;;;22.03;3.83;;;5.80;1.00;;;;;;5021936;28;20271;-52
2023/03/04 09:45:17;;;;;;;18.20;4.20;;;5.80;1.00;;;;;;5022450;28;20815;-51
2023/03/04 09:47:44;;;;;;;28.40;4.60;;;5.90;1.00;;;;;;5019958;28;20446;-52
2023/03/04 09:50:11;;;;;;;23.00;4.70;;;5.80;1.00;;;;;;5022348;28;20431;-52
2023/03/04 09:53:06;;;;;;;26.57;4.00;;;5.80;1.00;;;;;;5019920;28;20442;-52
2023/03/04 09:55:40;;;;;;;21.00;4.17;;;5.90;1.00;;;;;;5024220;28;20456;-51
2023/03/04 09:58:20;;;;;;;16.87;3.83;;;5.90;1.00;;;;;;5016479;28;20498;-51
2023/03/04 10:00:54;;;;;;;20.40;4.10;;;5.90;1.00;;;;;;5020280;28;20455;-52
2023/03/04 10:03:27;;;;;;;24.80;3.87;;;5.90;1.00;;;;;;5018774;28;20517;-51
2023/03/04 10:06:06;;;;;;;24.57;3.73;;;6.00;1.00;;;;;;5026201;28;20556;-52
2023/03/04 10:08:57;;;;;;;15.30;4.13;;;6.10;1.00;;;;;;5023854;28;20459;-52
2023/03/04 10:11:37;;;;;;;22.23;3.93;;;6.00;1.00;;;;;;5028608;28;20807;-52
2023/03/04 10:14:14;;;;;;;19.77;3.70;;;6.00;1.00;;;;;;5028238;28;20494;-52
2023/03/04 10:16:53;;;;;;;30.33;4.00;;;6.00;1.00;;;;;;5025786;28;20440;-52
2023/03/04 10:19:37;;;;;;;24.27;3.40;;;6.10;1.00;;;;;;5021992;28;20442;-52
2023/03/04 10:22:18;;;;;;;28.53;3.60;;;6.20;1.00;;;;;;5016977;28;20536;-52
2023/03/04 10:24:46;;;;;;;22.67;3.80;;;6.20;1.00;;;;;;5020631;28;21019;-53
2023/03/04 10:27:15;;;;;;;29.37;4.83;;;6.20;1.00;;;;;;5023144;28;20479;-51
2023/03/04 10:29:41;;;;;;;26.53;4.20;;;6.20;1.00;;;;;;5023112;28;20435;-51
2023/03/04 10:32:15;;;;;;;29.90;3.90;;;6.20;1.00;;;;;;5021783;28;20465;-52
2023/03/04 10:34:40;;;;;;;20.43;4.57;;;6.30;1.00;;;;;;5021442;28;20253;-52
2023/03/04 10:37:07;;;;;;;26.33;5.03;;;6.20;1.00;;;;;;5020660;28;20473;-52
2023/03/04 10:39:41;;;;;;;24.60;4.43;;;6.20;1.00;;;;;;5017399;28;20204;-52
2023/03/04 10:42:13;;;;;;;18.77;3.80;;;6.20;1.00;;;;;;5018545;28;20485;-52
2023/03/04 10:44:41;;;;;;;27.10;4.13;;;6.40;1.00;;;;;;5015867;28;20491;-52
2023/03/04 10:47:10;;;;;;;26.00;4.00;;;6.50;1.00;;;;;;5016644;28;20428;-52
2023/03/04 10:49:56;;;;;;;28.70;4.33;;;6.60;1.00;;;;;;5020227;28;20527;-52
2023/03/04 10:52:34;;;;;;;25.23;3.50;;;6.70;1.00;;;;;;5016686;28;20443;-52
2023/03/04 10:55:05;;;;;;;21.97;3.90;;;6.70;1.00;;;;;;5018435;28;20451;-52
2023/03/04 10:57:40;;;;;;;22.10;3.73;;;6.80;1.00;;;;;;5015920;28;20432;-51
2023/03/04 11:00:16;;;;;;;16.10;3.40;;;6.90;1.00;;;;;;5016911;28;20487;-52
2023/03/04 11:02:43;;;;;;;23.57;4.30;;;6.90;1.00;;;;;;5023729;28;20474;-52
2023/03/04 11:05:08;;;;;;;21.03;3.43;;;6.90;1.00;;;;;;5020293;28;20458;-52
2023/03/04 11:07:58;;;;;;;28.20;4.07;;;7.10;1.00;;;;;;5025614;28;20444;-52
2023/03/04 11:10:35;;;;;;;18.83;3.30;;;7.00;1.00;;;;;;5023355;28;20679;-52
2023/03/04 11:13:11;;;;;;;18.17;3.60;;;6.90;1.00;;;;;;5022554;28;20574;-52
2023/03/04 11:15:56;;;;;;;14.03;3.57;;;6.90;1.00;;;;;;5019085;28;20457;-52
2023/03/04 11:18:33;;;;;;;20.90;4.07;;;6.90;1.00;;;;;;5020398;28;20465;-53
2023/03/04 11:21:00;;;;;;;16.27;3.50;;;7.00;1.00;;;;;;5024077;28;20440;-51
2023/03/04 11:23:36;;;;;;;14.90;4.83;;;7.00;1.00;;;;;;5019009;28;20657;-52
2023/03/04 11:26:09;;;;;;;15.43;3.67;;;7.00;1.00;;;;;;5022441;28;20959;-51
2023/03/04 11:28:52;;;;;;;16.07;3.77;;;6.90;1.00;;;;;;5021355;28;20442;-52
2023/03/04 11:32:00;;;;;;;25.50;4.87;;;7.00;1.00;;;;;;5023576;28;20925;-52
2023/03/04 11:34:41;;;;;;;21.13;3.80;;;6.80;1.00;;;;;;5023575;28;20447;-53
2023/03/04 11:37:17;;;;;;;28.50;5.03;;;6.80;1.00;;;;;;5023568;28;20470;-53
2023/03/04 11:39:49;;;;;;;17.63;4.10;;;6.70;1.00;;;;;;5025961;28;20435;-52
2023/03/04 11:42:37;;;;;;;21.70;3.90;;;6.70;1.00;;;;;;5023772;28;20553;-52
2023/03/04 11:45:08;;;;;;;22.57;3.60;;;6.60;1.00;;;;;;5024029;28;20916;-51
2023/03/04 11:47:43;;;;;;;17.73;4.60;;;6.60;1.00;;;;;;5024732;28;20437;-52
2023/03/04 11:50:09;;;;;;;25.73;4.03;;;6.60;1.00;;;;;;5021114;28;20809;-51
2023/03/04 11:52:40;;;;;;;15.30;3.70;;;6.60;1.00;;;;;;5026419;28;20453;-52
2023/03/04 11:55:28;;;;;;;21.60;3.40;;;6.70;1.00;;;;;;5019552;28;20242;-52
2023/03/04 11:58:12;;;;;;;26.37;6.80;;;6.90;1.00;;;;;;5022975;28;20457;-52
2023/03/04 12:00:53;;;;;;;24.20;6.03;;;7.20;1.00;;;;;;5018611;28;20448;-52
2023/03/04 12:03:45;;;;;;;23.53;5.17;;;7.30;1.00;;;;;;5020674;28;20476;-52
2023/03/04 12:06:13;;;;;;;24.77;4.50;;;7.40;1.00;;;;;;5022314;28;20465;-53
2023/03/04 12:08:50;;;;;;;25.87;6.10;;;7.50;1.00;;;;;;5028641;28;20846;-53
2023/03/04 12:11:43;;;;;;;24.13;4.43;;;7.40;1.00;;;;;;5029583;28;20519;-52
2023/03/04 12:14:17;;;;;;;17.30;3.90;;;7.30;1.00;;;;;;5024692;28;20444;-53
2023/03/04 12:17:02;;;;;;;25.23;4.87;;;7.20;1.00;;;;;;5019115;28;20449;-52
2023/03/04 12:19:52;;;;;;;24.50;4.47;;;7.20;1.00;;;;;;5021250;28;20431;-52
2023/03/04 12:22:42;;;;;;;34.97;5.10;;;7.20;1.00;;;;;;5020039;28;20478;-52
2023/03/04 12:25:19;;;;;;;21.23;4.83;;;7.20;1.00;;;;;;5023027;28;20439;-52
2023/03/04 12:27:57;;;;;;;23.40;4.23;;;7.10;1.00;;;;;;5023548;28;20463;-52
2023/03/04 12:30:54;;;;;;;25.43;4.33;;;7.20;1.00;;;;;;5020756;28;20973;-52
2023/03/04 12:33:19;;;;;;;19.37;3.03;;;7.40;1.00;;;;;;5024320;28;20470;-52
2023/03/04 12:36:13;;;;;;;20.90;4.83;;;7.40;1.00;;;;;;5020140;28;20484;-52
2023/03/04 12:39:14;;;;;;;27.20;4.13;;;7.50;1.00;;;;;;5026202;28;20192;-52
2023/03/04 12:42:03;;;;;;;21.70;3.50;;;7.50;1.00;;;;;;5024942;28;20483;-52
2023/03/04 12:44:36;;;;;;;17.00;3.83;;;7.40;1.00;;;;;;5021656;28;20858;-52
2023/03/04 12:47:11;;;;;;;19.30;3.50;;;7.30;1.00;;;;;;5020948;28;20450;-52
2023/03/04 12:49:50;;;;;;;19.20;3.50;;;7.10;1.00;;;;;;5024888;28;20443;-52
2023/03/04 12:52:40;;;;;;;24.90;3.47;;;7.00;1.00;;;;;;5021045;28;20479;-52
2023/03/04 12:55:12;;;;;;;16.53;3.23;;;7.10;1.00;;;;;;5022852;28;20474;-52
2023/03/04 12:57:39;;;;;;;18.73;4.37;;;7.10;1.00;;;;;;5027819;28;20453;-52
2023/03/04 13:00:12;;;;;;;22.03;3.93;;;7.10;1.00;;;;;;5021853;28;20431;-52
2023/03/04 13:02:49;;;;;;;23.97;4.30;;;6.90;1.00;;;;;;5021082;28;20495;-52
2023/03/04 13:05:39;;;;;;;19.83;4.30;;;6.80;1.00;;;;;;5022169;28;20451;-52